Time;durP1;ratioP1;P1;durP2;ratioP2;P2;SDS_P1;SDS_P2;PMS_P1;PMS_P2;Temp;Humidity;BMP_temperature;BMP_pressure;BME280_temperature;BME280_humidity;BME280_pressure;Samples;Min_cycle;Max_cycle;Signal;HPM_P1;HPM_P2
2022/09/08 00:00:25;;;;;;;;;;;20.00;99.90;;;;;;5064801;28;19992;-72
2022/09/08 00:02:52;;;;;;;;;;;19.90;99.90;;;;;;5059649;28;19921;-72
2022/09/08 00:05:20;;;;;;;;;;;19.80;99.90;;;;;;5064779;28;19921;-72
2022/09/08 00:07:47;;;;;;;;;;;19.60;99.90;;;;;;5065079;28;19921;-72
2022/09/08 00:10:15;;;;;;;;;;;19.50;99.90;;;;;;5064795;28;20153;-71
2022/09/08 00:12:43;;;;;;;;;;;19.40;99.90;;;;;;5064371;28;19963;-72
2022/09/08 00:15:10;;;;;;;;;;;19.20;99.90;;;;;;5064783;28;19920;-71
2022/09/08 00:17:37;;;;;;;;;;;19.10;99.90;;;;;;5064886;28;19992;-72
2022/09/08 00:20:04;;;;;;;;;;;19.10;99.90;;;;;;5063550;28;20143;-72
2022/09/08 00:22:31;;;;;;;;;;;19.00;99.90;;;;;;5064337;28;19933;-72
2022/09/08 00:24:58;;;;;;;;;;;19.00;99.90;;;;;;5064341;28;20121;-72
2022/09/08 00:27:25;;;;;;;;;;;18.90;99.90;;;;;;5064536;28;20178;-71
2022/09/08 00:29:52;;;;;;;;;;;18.90;99.90;;;;;;5064407;28;19992;-71
2022/09/08 00:32:20;;;;;;;;;;;18.80;99.90;;;;;;5064431;28;19927;-71
2022/09/08 00:34:46;;;;;;;;;;;18.80;99.90;;;;;;5063377;28;19921;-70
2022/09/08 00:37:14;;;;;;;;;;;18.80;99.90;;;;;;5064947;28;19933;-71
2022/09/08 00:39:41;;;;;;;;;;;18.80;99.90;;;;;;5064151;28;19920;-71
2022/09/08 00:42:07;;;;;;;;;;;18.80;99.90;;;;;;5064013;28;19927;-71
2022/09/08 00:44:39;;;;;;;;;;;18.80;99.90;;;;;;5064011;28;19928;-71
2022/09/08 00:47:12;;;;;;;;;;;18.80;99.90;;;;;;5064574;28;20192;-71
2022/09/08 00:49:39;;;;;;;;;;;18.80;99.90;;;;;;5064170;28;19927;-71
2022/09/08 00:52:05;;;;;;;;;;;18.80;99.90;;;;;;5063971;28;19989;-71
2022/09/08 00:54:32;;;;;;;;;;;18.80;99.90;;;;;;5063696;28;20128;-71
2022/09/08 00:56:59;;;;;;;;;;;18.80;99.90;;;;;;5044144;28;19922;-71
2022/09/08 00:59:26;;;;;;;;;;;18.80;99.90;;;;;;5043897;28;19921;-71
2022/09/08 01:01:53;;;;;;;;;;;18.60;99.90;;;;;;5044331;28;20116;-71
2022/09/08 01:04:21;;;;;;;;;;;18.60;99.90;;;;;;5043436;28;19987;-71
2022/09/08 01:15:09;;;;;;;;;;;18.50;99.90;;;;;;5063463;28;19958;-71
2022/09/08 01:17:36;;;;;;;;;;;18.60;99.90;;;;;;5063577;28;19936;-71
2022/09/08 01:20:05;;;;;;;;;;;18.60;99.90;;;;;;5062945;28;19988;-71
2022/09/08 01:22:45;;;;;;;;;;;18.50;99.90;;;;;;5063463;28;19946;-69
2022/09/08 01:25:18;;;;;;;;;;;18.50;99.90;;;;;;5043943;28;19921;-71
2022/09/08 01:27:49;;;;;;;;;;;18.50;99.90;;;;;;5043725;28;20220;-71
2022/09/08 01:30:15;;;;;;;;;;;18.50;99.90;;;;;;5043394;28;19921;-71
2022/09/08 01:32:43;;;;;;;;;;;18.50;99.90;;;;;;5043608;28;19984;-70
2022/09/08 01:35:11;;;;;;;;;;;18.40;99.90;;;;;;5042597;28;19927;-71
2022/09/08 01:37:37;;;;;;;;;;;18.50;99.90;;;;;;5054871;28;20105;-71
2022/09/08 01:40:05;;;;;;;;;;;18.50;99.90;;;;;;5063030;28;19927;-69
2022/09/08 01:42:32;;;;;;;;;;;18.50;99.90;;;;;;5058730;28;19931;-68
2022/09/08 01:45:00;;;;;;;;;;;18.50;99.90;;;;;;5063107;28;19920;-71
2022/09/08 01:47:26;;;;;;;;;;;18.40;99.90;;;;;;5063172;28;19983;-70
2022/09/08 01:49:53;;;;;;;;;;;18.40;99.90;;;;;;5063229;28;19956;-71
2022/09/08 01:52:20;;;;;;;;;;;18.40;99.90;;;;;;5063079;28;19952;-71
2022/09/08 01:54:46;;;;;;;;;;;18.40;99.90;;;;;;5062568;28;19991;-70
2022/09/08 01:57:13;;;;;;;;;;;18.40;99.90;;;;;;5063250;28;19942;-71
2022/09/08 01:59:39;;;;;;;;;;;18.40;99.90;;;;;;5063164;28;19927;-71
2022/09/08 02:02:07;;;;;;;;;;;18.40;99.90;;;;;;5063092;28;19988;-71
2022/09/08 02:04:34;;;;;;;;;;;18.40;99.90;;;;;;5062894;28;20258;-71
2022/09/08 02:07:00;;;;;;;;;;;18.30;99.90;;;;;;5063021;28;20155;-69
2022/09/08 02:09:27;;;;;;;;;;;18.30;99.90;;;;;;5063070;28;19963;-71
2022/09/08 02:11:54;;;;;;;;;;;18.30;99.90;;;;;;5063378;28;19984;-71
2022/09/08 02:14:20;;;;;;;;;;;18.30;99.90;;;;;;5063343;28;19921;-71
2022/09/08 02:16:47;;;;;;;;;;;18.30;99.90;;;;;;5063422;28;20220;-71
2022/09/08 02:19:15;;;;;;;;;;;18.40;99.90;;;;;;5066829;28;19983;-71
2022/09/08 02:21:41;;;;;;;;;;;18.40;99.90;;;;;;5046958;28;19928;-70
2022/09/08 02:24:08;;;;;;;;;;;18.30;99.90;;;;;;5046551;28;20171;-71
2022/09/08 02:26:35;;;;;;;;;;;18.40;99.90;;;;;;5046929;28;19984;-71
2022/09/08 02:29:02;;;;;;;;;;;18.40;99.90;;;;;;5046831;28;19952;-71
2022/09/08 02:31:29;;;;;;;;;;;18.40;99.90;;;;;;5046675;28;20267;-71
2022/09/08 02:33:56;;;;;;;;;;;18.40;99.90;;;;;;5055663;28;19921;-70
2022/09/08 02:36:24;;;;;;;;;;;18.40;99.90;;;;;;5066555;28;20208;-71
2022/09/08 02:38:52;;;;;;;;;;;18.40;99.90;;;;;;5066786;28;20119;-71
2022/09/08 02:41:19;;;;;;;;;;;18.30;99.90;;;;;;5066833;28;19988;-71
2022/09/08 02:43:46;;;;;;;;;;;18.30;99.90;;;;;;5066166;28;20101;-69
2022/09/08 02:46:13;;;;;;;;;;;18.30;99.90;;;;;;5066502;28;20123;-72
2022/09/08 02:48:39;;;;;;;;;;;18.30;99.90;;;;;;5066192;28;19920;-71
2022/09/08 02:51:06;;;;;;;;;;;18.30;99.90;;;;;;5066540;28;19984;-70
2022/09/08 02:53:34;;;;;;;;;;;18.30;99.90;;;;;;5065861;28;19921;-72
2022/09/08 02:56:02;;;;;;;;;;;18.30;99.90;;;;;;5065991;28;19921;-71
2022/09/08 02:58:28;;;;;;;;;;;18.30;99.90;;;;;;5066206;28;19921;-70
2022/09/08 03:00:55;;;;;;;;;;;18.20;99.90;;;;;;5065972;28;19928;-71
2022/09/08 03:03:22;;;;;;;;;;;18.20;99.90;;;;;;5065707;28;19920;-72
2022/09/08 03:05:49;;;;;;;;;;;18.20;99.90;;;;;;5066254;28;19925;-71
2022/09/08 03:08:16;;;;;;;;;;;18.10;99.90;;;;;;5066033;28;20279;-71
2022/09/08 03:10:44;;;;;;;;;;;18.10;99.90;;;;;;5066014;28;19920;-70
2022/09/08 03:13:11;;;;;;;;;;;18.10;99.90;;;;;;5065615;28;19987;-71
2022/09/08 03:15:38;;;;;;;;;;;18.00;99.90;;;;;;5065501;28;20208;-71
2022/09/08 03:18:04;;;;;;;;;;;18.00;99.90;;;;;;5065762;28;19992;-71
2022/09/08 03:20:31;;;;;;;;;;;18.00;99.90;;;;;;5065645;28;19921;-71
2022/09/08 03:22:58;;;;;;;;;;;17.90;99.90;;;;;;5065211;28;19966;-71
2022/09/08 03:25:25;;;;;;;;;;;17.80;99.90;;;;;;5065696;28;20212;-71
2022/09/08 03:27:53;;;;;;;;;;;17.80;99.90;;;;;;5065562;28;19921;-71
2022/09/08 03:30:20;;;;;;;;;;;17.80;99.90;;;;;;5065161;28;19951;-71
2022/09/08 03:32:47;;;;;;;;;;;17.80;99.90;;;;;;5065025;28;19928;-72
2022/09/08 03:35:15;;;;;;;;;;;17.70;99.90;;;;;;5065499;28;19921;-71
2022/09/08 03:37:42;;;;;;;;;;;17.70;99.90;;;;;;5065654;28;19927;-71
2022/09/08 03:40:10;;;;;;;;;;;17.70;99.90;;;;;;5065549;28;19927;-71
2022/09/08 03:42:38;;;;;;;;;;;17.70;99.90;;;;;;5060344;28;19955;-68
2022/09/08 03:45:07;;;;;;;;;;;17.70;99.90;;;;;;5064955;28;19984;-71
2022/09/08 03:47:34;;;;;;;;;;;17.60;99.90;;;;;;5065182;28;19921;-71
2022/09/08 03:50:01;;;;;;;;;;;17.60;99.90;;;;;;5065365;28;19927;-71
2022/09/08 03:52:27;;;;;;;;;;;17.60;99.90;;;;;;5065089;28;19988;-69
2022/09/08 03:54:54;;;;;;;;;;;17.60;99.90;;;;;;5064966;28;20008;-71
2022/09/08 03:57:22;;;;;;;;;;;17.60;99.90;;;;;;5064874;28;20184;-71
2022/09/08 03:59:49;;;;;;;;;;;17.60;99.90;;;;;;5064960;28;19924;-71
2022/09/08 04:02:18;;;;;;;;;;;17.60;99.90;;;;;;5065076;28;20027;-71
2022/09/08 04:04:48;;;;;;;;;;;17.60;99.90;;;;;;5064715;28;19952;-71
2022/09/08 04:07:14;;;;;;;;;;;17.60;99.90;;;;;;5064908;28;19992;-71
2022/09/08 04:09:42;;;;;;;;;;;17.60;99.90;;;;;;5064874;28;19925;-71
2022/09/08 04:12:08;;;;;;;;;;;17.60;99.90;;;;;;5064493;28;20116;-70
2022/09/08 04:14:37;;;;;;;;;;;17.60;99.90;;;;;;5063914;28;20383;-71
2022/09/08 04:17:04;;;;;;;;;;;17.50;99.90;;;;;;5064761;28;19921;-74
2022/09/08 04:19:32;;;;;;;;;;;17.50;99.90;;;;;;5064205;28;20171;-71
2022/09/08 04:21:58;;;;;;;;;;;17.50;99.90;;;;;;5063898;28;20248;-71
2022/09/08 04:24:25;;;;;;;;;;;17.50;99.90;;;;;;5064299;28;19989;-70
2022/09/08 04:26:52;;;;;;;;;;;17.40;99.90;;;;;;5064233;28;19967;-71
2022/09/08 04:29:18;;;;;;;;;;;17.30;99.90;;;;;;5064453;28;19921;-70
2022/09/08 04:31:46;;;;;;;;;;;17.30;99.90;;;;;;5058411;28;20268;-71
2022/09/08 04:34:13;;;;;;;;;;;17.30;99.90;;;;;;5062658;28;19921;-71
2022/09/08 04:36:42;;;;;;;;;;;17.30;99.90;;;;;;5064089;28;19929;-74
2022/09/08 04:39:08;;;;;;;;;;;17.30;99.90;;;;;;5061522;28;19928;-71
2022/09/08 04:41:35;;;;;;;;;;;17.30;99.90;;;;;;5060033;28;19921;-71
2022/09/08 04:44:03;;;;;;;;;;;17.20;99.90;;;;;;5063408;28;19927;-71
2022/09/08 04:46:30;;;;;;;;;;;17.20;99.90;;;;;;5064623;28;19928;-71
2022/09/08 04:48:57;;;;;;;;;;;17.10;99.90;;;;;;5064160;28;20231;-70
2022/09/08 04:51:25;;;;;;;;;;;17.10;99.90;;;;;;5055105;28;19920;-71
2022/09/08 04:53:55;;;;;;;;;;;17.20;99.90;;;;;;5064134;28;19920;-71
2022/09/08 04:56:22;;;;;;;;;;;17.10;99.90;;;;;;5064231;28;19921;-71
2022/09/08 04:58:49;;;;;;;;;;;17.20;99.90;;;;;;5064361;28;19933;-71
2022/09/08 05:01:18;;;;;;;;;;;17.20;99.90;;;;;;5064329;28;20198;-71
2022/09/08 05:03:45;;;;;;;;;;;17.10;99.90;;;;;;5063621;28;19985;-71
2022/09/08 05:06:13;;;;;;;;;;;17.20;99.90;;;;;;5063864;28;19921;-71
2022/09/08 05:08:41;;;;;;;;;;;17.10;99.90;;;;;;5064113;28;19927;-70
2022/09/08 05:11:10;;;;;;;;;;;17.10;99.90;;;;;;5063604;28;20234;-71
2022/09/08 05:13:36;;;;;;;;;;;17.10;99.90;;;;;;5056041;28;20111;-71
2022/09/08 05:16:04;;;;;;;;;;;17.20;99.90;;;;;;5060582;28;19948;-72
2022/09/08 05:18:30;;;;;;;;;;;17.20;99.90;;;;;;5062726;28;19920;-73
2022/09/08 05:20:57;;;;;;;;;;;17.20;99.90;;;;;;5056935;28;19995;-71
2022/09/08 05:23:24;;;;;;;;;;;17.20;99.90;;;;;;5097927;22;19913;-93
2022/09/08 05:25:56;;;;;;;;;;;17.20;99.90;;;;;;5073964;28;19920;-91
2022/09/08 05:28:25;;;;;;;;;;;17.10;99.90;;;;;;5077296;28;19909;-90
2022/09/08 05:30:52;;;;;;;;;;;17.10;99.90;;;;;;5073938;28;19923;-91
2022/09/08 05:33:20;;;;;;;;;;;17.10;99.90;;;;;;5077346;28;19909;-90
2022/09/08 05:35:47;;;;;;;;;;;17.10;99.90;;;;;;5077797;28;19935;-91
2022/09/08 05:38:14;;;;;;;;;;;17.10;99.90;;;;;;5077559;28;19984;-92
2022/09/08 05:40:42;;;;;;;;;;;17.10;99.90;;;;;;5078038;28;19916;-92
2022/09/08 05:43:09;;;;;;;;;;;17.10;99.90;;;;;;5075381;28;19981;-94
2022/09/08 05:45:38;;;;;;;;;;;17.10;99.90;;;;;;5077926;28;19909;-92
2022/09/08 05:48:05;;;;;;;;;;;17.10;99.90;;;;;;5077743;28;19912;-94
2022/09/08 05:53:04;;;;;;;;;;;17.00;99.90;;;;;;5040532;28;19921;-69
2022/09/08 05:55:31;;;;;;;;;;;17.10;99.90;;;;;;5043169;28;19992;-68
2022/09/08 05:57:58;;;;;;;;;;;17.10;99.90;;;;;;5043137;28;20011;-68
2022/09/08 06:00:24;;;;;;;;;;;17.10;99.90;;;;;;5043302;28;19988;-68
2022/09/08 06:02:52;;;;;;;;;;;17.10;99.90;;;;;;5042698;28;19989;-69
2022/09/08 06:05:19;;;;;;;;;;;17.10;99.90;;;;;;5042976;28;19964;-68
2022/09/08 06:07:46;;;;;;;;;;;17.10;99.90;;;;;;5056910;23;20295;-69
2022/09/08 06:10:13;;;;;;;;;;;17.10;99.90;;;;;;5043142;28;19921;-69
2022/09/08 06:12:40;;;;;;;;;;;17.10;99.90;;;;;;5042946;28;19956;-69
2022/09/08 06:15:08;;;;;;;;;;;17.10;99.90;;;;;;5042863;28;19921;-69
2022/09/08 06:17:34;;;;;;;;;;;17.10;99.90;;;;;;5043011;28;19956;-72
2022/09/08 06:20:03;;;;;;;;;;;17.10;99.90;;;;;;5042617;28;19980;-69
2022/09/08 06:22:32;;;;;;;;;;;17.10;99.90;;;;;;5042991;28;19988;-69
2022/09/08 06:24:58;;;;;;;;;;;17.10;99.90;;;;;;5042730;28;19928;-69
2022/09/08 06:27:32;;;;;;;;;;;17.10;99.90;;;;;;5042881;28;19975;-67
2022/09/08 06:30:02;;;;;;;;;;;17.10;99.90;;;;;;5042829;28;19928;-67
2022/09/08 06:32:30;;;;;;;;;;;17.10;99.90;;;;;;5042773;28;19921;-67
2022/09/08 06:35:00;;;;;;;;;;;17.00;99.90;;;;;;5042286;28;19921;-67
2022/09/08 06:37:31;;;;;;;;;;;17.10;99.90;;;;;;5042691;28;19928;-67
2022/09/08 06:40:00;;;;;;;;;;;17.00;99.90;;;;;;5042822;28;20291;-66
2022/09/08 06:42:32;;;;;;;;;;;17.00;99.90;;;;;;5042965;28;19992;-67
2022/09/08 06:45:00;;;;;;;;;;;17.10;99.90;;;;;;5042732;28;19952;-67
2022/09/08 06:47:31;;;;;;;;;;;17.10;99.90;;;;;;5042390;28;19928;-67
2022/09/08 06:49:57;;;;;;;;;;;17.00;99.90;;;;;;5042872;28;19992;-67
2022/09/08 06:52:28;;;;;;;;;;;17.00;99.90;;;;;;5042692;28;19921;-66
2022/09/08 06:55:02;;;;;;;;;;;17.00;99.90;;;;;;5041858;28;19980;-66
2022/09/08 06:57:36;;;;;;;;;;;17.00;99.90;;;;;;5042931;28;20116;-66
2022/09/08 07:00:09;;;;;;;;;;;17.10;99.90;;;;;;5043071;28;19957;-66
2022/09/08 07:02:56;;;;;;;;;;;17.00;99.90;;;;;;5043034;28;20105;-66
2022/09/08 07:05:31;;;;;;;;;;;17.00;99.90;;;;;;5046041;28;19988;-66
2022/09/08 07:08:00;;;;;;;;;;;17.00;99.90;;;;;;5046061;28;19921;-66
2022/09/08 07:10:32;;;;;;;;;;;16.90;99.90;;;;;;5046240;28;19927;-66
2022/09/08 07:13:02;;;;;;;;;;;16.90;99.90;;;;;;5045942;28;19921;-66
2022/09/08 07:15:33;;;;;;;;;;;16.90;99.90;;;;;;5045900;28;19960;-66
2022/09/08 07:18:04;;;;;;;;;;;16.90;99.90;;;;;;5046088;28;19921;-66
2022/09/08 07:20:31;;;;;;;;;;;16.90;99.90;;;;;;5046201;28;20255;-67
2022/09/08 07:23:00;;;;;;;;;;;16.80;99.90;;;;;;5045691;28;19956;-66
2022/09/08 07:25:28;;;;;;;;;;;16.80;99.90;;;;;;5046240;28;20116;-66
2022/09/08 07:28:02;;;;;;;;;;;16.80;99.90;;;;;;5046060;28;19967;-66
2022/09/08 07:30:28;;;;;;;;;;;16.70;99.90;;;;;;5045969;28;19928;-68
2022/09/08 07:32:58;;;;;;;;;;;16.60;99.90;;;;;;5045634;28;19921;-69
2022/09/08 07:35:28;;;;;;;;;;;16.60;99.90;;;;;;5045754;28;19928;-69
2022/09/08 07:37:55;;;;;;;;;;;16.60;99.90;;;;;;5045871;28;19928;-69
2022/09/08 07:40:22;;;;;;;;;;;16.60;99.90;;;;;;5045898;28;19988;-68
2022/09/08 07:42:50;;;;;;;;;;;16.60;99.90;;;;;;5045642;28;19921;-67
2022/09/08 07:45:18;;;;;;;;;;;16.70;99.90;;;;;;5025563;28;19921;-67
2022/09/08 07:47:56;;;;;;;;;;;16.70;99.90;;;;;;5029174;28;19929;-67
2022/09/08 07:50:53;;;;;;;;;;;16.70;99.90;;;;;;5040985;28;19921;-67
2022/09/08 07:53:27;;;;;;;;;;;16.70;99.90;;;;;;5029453;28;19921;-69
2022/09/08 07:55:55;;;;;;;;;;;16.60;99.90;;;;;;5027628;28;19928;-69
2022/09/08 07:58:27;;;;;;;;;;;16.70;99.90;;;;;;5045127;28;19943;-68
2022/09/08 08:00:58;;;;;;;;;;;16.50;99.90;;;;;;5044552;28;19959;-69
2022/09/08 08:03:30;;;;;;;;;;;16.50;99.90;;;;;;5044798;28;19928;-67
2022/09/08 08:06:00;;;;;;;;;;;16.60;99.90;;;;;;5053751;28;19925;-67
2022/09/08 08:08:32;;;;;;;;;;;16.50;99.90;;;;;;5065102;28;20194;-67
2022/09/08 08:11:04;;;;;;;;;;;16.50;99.90;;;;;;5064912;28;19927;-67
2022/09/08 08:13:39;;;;;;;;;;;16.50;99.90;;;;;;5052639;28;19948;-67
2022/09/08 08:16:09;;;;;;;;;;;16.50;99.90;;;;;;5042553;28;19959;-67
2022/09/08 08:18:39;;;;;;;;;;;16.50;99.90;;;;;;5044924;28;19921;-67
2022/09/08 08:21:13;;;;;;;;;;;16.50;99.90;;;;;;5044821;28;19988;-67
2022/09/08 08:23:45;;;;;;;;;;;16.50;99.90;;;;;;5024609;28;19922;-67
2022/09/08 08:26:17;;;;;;;;;;;16.50;99.90;;;;;;5036027;28;19984;-67
2022/09/08 08:28:44;;;;;;;;;;;16.50;99.90;;;;;;5044049;28;19988;-67
2022/09/08 08:31:19;;;;;;;;;;;16.60;99.90;;;;;;5044310;28;19935;-67
2022/09/08 08:33:48;;;;;;;;;;;16.60;99.90;;;;;;5044216;28;19921;-67
2022/09/08 08:36:16;;;;;;;;;;;16.50;99.90;;;;;;5043909;28;19928;-66
2022/09/08 08:38:44;;;;;;;;;;;16.50;99.90;;;;;;5044391;28;19921;-67
2022/09/08 08:41:15;;;;;;;;;;;16.50;99.90;;;;;;5044418;28;19975;-67
2022/09/08 08:43:51;;;;;;;;;;;16.40;99.90;;;;;;5044114;28;19980;-67
2022/09/08 08:46:36;;;;;;;;;;;16.40;99.90;;;;;;5044257;28;19928;-67
2022/09/08 08:49:11;;;;;;;;;;;16.40;99.90;;;;;;5044471;28;20317;-67
2022/09/08 08:51:46;;;;;;;;;;;16.40;99.90;;;;;;5044346;28;20128;-67
2022/09/08 08:54:19;;;;;;;;;;;16.50;99.90;;;;;;5043887;28;19997;-67
2022/09/08 08:56:47;;;;;;;;;;;16.50;99.90;;;;;;5043809;28;19928;-67
2022/09/08 08:59:41;;;;;;;;;;;16.50;99.90;;;;;;5043714;28;20287;-67
2022/09/08 09:02:15;;;;;;;;;;;16.50;99.90;;;;;;5008591;28;19984;-67
2022/09/08 09:04:54;;;;;;;;;;;16.60;99.90;;;;;;5043563;28;19927;-67
2022/09/08 09:07:32;;;;;;;;;;;16.60;99.90;;;;;;5043654;28;19921;-68
2022/09/08 09:10:10;;;;;;;;;;;16.60;99.90;;;;;;5043577;28;19952;-67
2022/09/08 09:12:47;;;;;;;;;;;16.70;99.90;;;;;;5044020;28;20119;-67
2022/09/08 09:15:29;;;;;;;;;;;16.70;99.90;;;;;;5037234;28;19921;-68
2022/09/08 09:18:09;;;;;;;;;;;16.70;99.90;;;;;;5035286;28;19964;-67
2022/09/08 09:20:49;;;;;;;;;;;16.70;99.90;;;;;;5023654;28;19921;-67
2022/09/08 09:23:25;;;;;;;;;;;16.80;99.90;;;;;;5023551;28;19993;-68
2022/09/08 09:25:56;;;;;;;;;;;16.90;99.90;;;;;;5033496;28;19963;-67
2022/09/08 09:28:32;;;;;;;;;;;17.00;99.90;;;;;;5043274;28;19952;-67
2022/09/08 09:31:04;;;;;;;;;;;17.00;99.90;;;;;;5058935;28;19931;-67
2022/09/08 09:33:46;;;;;;;;;;;17.10;99.90;;;;;;5023645;28;19927;-67
2022/09/08 09:36:19;;;;;;;;;;;17.00;99.90;;;;;;5023670;28;19952;-67
2022/09/08 09:39:08;;;;;;;;;;;17.00;99.90;;;;;;5028561;28;19927;-67
2022/09/08 09:41:43;;;;;;;;;;;17.00;99.90;;;;;;5043253;28;19964;-67
2022/09/08 09:44:21;;;;;;;;;;;17.00;99.90;;;;;;5043210;28;20173;-67
2022/09/08 09:47:06;;;;;;;;;;;17.10;99.90;;;;;;5043374;28;19988;-66
2022/09/08 09:49:56;;;;;;;;;;;17.20;99.90;;;;;;5029177;28;19928;-68
2022/09/08 09:52:29;;;;;;;;;;;17.30;99.90;;;;;;5008490;28;19921;-68
2022/09/08 09:55:03;;;;;;;;;;;17.40;99.90;;;;;;5040168;28;19928;-67
2022/09/08 09:57:49;;;;;;;;;;;17.60;99.90;;;;;;5043049;28;19956;-67
2022/09/08 10:00:18;;;;;;;;;;;17.60;99.90;;;;;;5042214;28;20171;-68
2022/09/08 10:03:15;;;;;;;;;;;17.80;99.90;;;;;;5042781;28;19921;-68
2022/09/08 10:06:15;;;;;;;;;;;17.90;99.90;;;;;;5043120;28;19928;-69
2022/09/08 10:08:55;;;;;;;;;;;18.10;99.90;;;;;;5043015;28;19952;-69
2022/09/08 10:11:31;;;;;;;;;;;18.10;99.90;;;;;;5043157;28;19921;-69
2022/09/08 10:14:22;;;;;;;;;;;18.10;99.90;;;;;;5042793;28;19921;-69
2022/09/08 10:17:08;;;;;;;;;;;18.20;99.90;;;;;;5039025;28;19921;-69
2022/09/08 10:19:55;;;;;;;;;;;18.20;99.90;;;;;;5040369;28;19992;-69
2022/09/08 10:22:33;;;;;;;;;;;18.20;99.90;;;;;;5042378;28;20131;-69
2022/09/08 10:25:27;;;;;;;;;;;18.20;99.90;;;;;;5042692;28;19921;-69
2022/09/08 10:28:23;;;;;;;;;;;18.20;99.90;;;;;;5042808;28;19944;-69
2022/09/08 10:30:58;;;;;;;;;;;18.20;99.90;;;;;;5042762;28;19927;-69
2022/09/08 10:33:33;;;;;;;;;;;18.30;99.90;;;;;;5042626;28;19921;-69
2022/09/08 10:36:02;;;;;;;;;;;18.30;99.90;;;;;;5042527;28;20200;-69
2022/09/08 10:38:45;;;;;;;;;;;18.40;99.90;;;;;;5044366;28;19975;-68
2022/09/08 10:41:42;;;;;;;;;;;18.40;99.90;;;;;;5033270;28;19956;-69
2022/09/08 10:44:14;;;;;;;;;;;18.60;99.90;;;;;;5046160;28;20276;-69
2022/09/08 10:46:51;;;;;;;;;;;18.70;99.90;;;;;;5046509;28;19921;-69
2022/09/08 10:49:38;;;;;;;;;;;18.70;99.90;;;;;;5046296;28;19984;-69
2022/09/08 10:52:19;;;;;;;;;;;18.80;99.90;;;;;;5026607;28;19932;-69
2022/09/08 10:55:01;;;;;;;;;;;19.00;99.90;;;;;;5026114;28;20102;-69
2022/09/08 10:57:34;;;;;;;;;;;18.80;99.90;;;;;;5024688;28;19985;-69
2022/09/08 11:00:04;;;;;;;;;;;18.70;99.90;;;;;;5026557;28;20001;-69
2022/09/08 11:02:35;;;;;;;;;;;18.70;99.90;;;;;;5026192;28;19928;-69
2022/09/08 11:05:20;;;;;;;;;;;18.80;99.90;;;;;;5044234;28;19983;-69
2022/09/08 11:08:07;;;;;;;;;;;18.90;99.90;;;;;;5045746;28;19924;-69
2022/09/08 11:10:42;;;;;;;;;;;19.10;99.90;;;;;;5020588;28;19928;-69
2022/09/08 11:13:29;;;;;;;;;;;19.40;99.90;;;;;;5045621;28;19989;-69
2022/09/08 11:16:17;;;;;;;;;;;19.60;99.90;;;;;;5040608;28;19927;-69
2022/09/08 11:18:52;;;;;;;;;;;19.80;99.90;;;;;;5020808;28;19995;-69
2022/09/08 11:21:23;;;;;;;;;;;20.10;99.90;;;;;;5045584;28;19921;-69
2022/09/08 11:23:58;;;;;;;;;;;20.30;99.90;;;;;;5045002;28;19921;-69
2022/09/08 11:26:29;;;;;;;;;;;20.30;99.90;;;;;;5046088;28;19952;-69
2022/09/08 11:29:01;;;;;;;;;;;20.30;99.90;;;;;;5045933;28;19928;-69
2022/09/08 11:31:34;;;;;;;;;;;20.20;99.90;;;;;;5046288;28;19921;-70
2022/09/08 11:34:18;;;;;;;;;;;20.00;99.90;;;;;;5046049;28;19921;-72
2022/09/08 11:36:54;;;;;;;;;;;20.00;99.90;;;;;;5045067;28;19921;-69
2022/09/08 11:39:28;;;;;;;;;;;20.20;99.90;;;;;;5025083;28;20242;-70
2022/09/08 11:42:17;;;;;;;;;;;20.50;99.90;;;;;;5025799;28;19921;-69
2022/09/08 11:44:47;;;;;;;;;;;20.70;99.90;;;;;;5025589;28;19975;-69
2022/09/08 11:47:26;;;;;;;;;;;20.70;99.90;;;;;;5025589;28;20208;-69
2022/09/08 11:50:10;;;;;;;;;;;20.60;99.90;;;;;;5024434;28;19921;-70
2022/09/08 11:52:47;;;;;;;;;;;20.40;99.90;;;;;;5024929;28;19922;-70
2022/09/08 11:55:21;;;;;;;;;;;20.00;99.90;;;;;;5025939;28;19961;-69
2022/09/08 11:57:52;;;;;;;;;;;20.00;99.90;;;;;;5025279;28;19921;-70
2022/09/08 12:00:24;;;;;;;;;;;20.20;99.90;;;;;;5023356;28;20231;-69
2022/09/08 12:03:09;;;;;;;;;;;20.50;99.90;;;;;;5025049;28;19957;-69
2022/09/08 12:05:46;;;;;;;;;;;20.90;99.90;;;;;;5030595;28;19980;-70
2022/09/08 12:08:23;;;;;;;;;;;21.10;99.90;;;;;;5059293;22;20178;-71
2022/09/08 12:10:56;;;;;;;;;;;21.00;99.90;;;;;;5044940;28;19993;-70
2022/09/08 12:13:29;;;;;;;;;;;21.00;99.90;;;;;;5044728;28;19987;-70
2022/09/08 12:16:10;;;;;;;;;;;21.00;99.90;;;;;;5041098;28;19952;-71
2022/09/08 12:18:48;;;;;;;;;;;20.90;99.90;;;;;;5012461;28;19925;-70
2022/09/08 12:21:28;;;;;;;;;;;21.00;99.90;;;;;;5023878;28;19922;-73
2022/09/08 12:26:46;;;;;;;;;;;21.50;99.90;;;;;;5002324;28;19921;-70
2022/09/08 12:29:32;;;;;;;;;;;21.50;99.90;;;;;;5024635;28;19988;-70
2022/09/08 12:32:15;;;;;;;;;;;21.80;99.90;;;;;;5024649;28;19921;-70
2022/09/08 12:35:12;;;;;;;;;;;;;;;;;;;;;
2022/09/08 12:37:46;;;;;;;;;;;22.00;99.90;;;;;;5008654;28;19921;-70
2022/09/08 12:40:33;;;;;;;;;;;22.20;99.90;;;;;;5024491;28;19921;-69
2022/09/08 12:43:19;;;;;;;;;;;22.30;99.90;;;;;;4999696;28;19981;-70
2022/09/08 12:46:05;;;;;;;;;;;22.20;99.90;;;;;;5004990;28;19985;-71
2022/09/08 12:48:36;;;;;;;;;;;22.00;99.90;;;;;;5004882;28;19922;-70
2022/09/08 12:54:35;;;;;;;;;;;22.30;99.90;;;;;;5004588;28;19925;-70
2022/09/08 12:57:36;;;;;;;;;;;22.60;99.90;;;;;;5004668;28;19928;-70
2022/09/08 13:06:23;;;;;;;;;;;22.70;99.90;;;;;;5004459;28;19920;-71
2022/09/08 13:08:56;;;;;;;;;;;22.40;99.90;;;;;;5008989;28;19929;-70
2022/09/08 13:11:28;;;;;;;;;;;22.00;99.90;;;;;;5023868;28;19921;-71
2022/09/08 13:13:58;;;;;;;;;;;21.70;99.90;;;;;;5023843;28;19922;-71
2022/09/08 13:16:29;;;;;;;;;;;21.50;99.90;;;;;;5024099;28;19928;-71
2022/09/08 13:19:01;;;;;;;;;;;21.30;99.90;;;;;;5024056;28;19921;-70
2022/09/08 13:21:33;;;;;;;;;;;21.10;99.90;;;;;;5024133;28;20123;-71
2022/09/08 13:24:03;;;;;;;;;;;21.10;99.90;;;;;;5023348;28;20116;-70
2022/09/08 13:26:39;;;;;;;;;;;21.20;99.90;;;;;;5023687;28;19922;-70
2022/09/08 13:29:15;;;;;;;;;;;21.10;99.90;;;;;;5023906;28;20240;-70
2022/09/08 13:31:48;;;;;;;;;;;21.20;99.90;;;;;;5023937;28;19921;-69
2022/09/08 13:34:20;;;;;;;;;;;21.20;99.90;;;;;;5023628;28;19985;-70
2022/09/08 13:36:58;;;;;;;;;;;21.50;99.90;;;;;;5023235;28;19921;-70
2022/09/08 13:39:34;;;;;;;;;;;21.70;99.90;;;;;;5022474;28;19922;-69
2022/09/08 13:42:12;;;;;;;;;;;22.20;99.90;;;;;;5019799;28;19922;-69
2022/09/08 13:44:53;;;;;;;;;;;22.60;99.90;;;;;;5023374;28;19964;-70
2022/09/08 13:47:40;;;;;;;;;;;23.20;99.90;;;;;;5023778;28;20264;-71
2022/09/08 13:50:17;;;;;;;;;;;23.50;99.90;;;;;;5017663;28;19928;-70
2022/09/08 13:52:52;;;;;;;;;;;23.40;99.90;;;;;;5023203;28;19922;-71
2022/09/08 13:55:30;;;;;;;;;;;23.30;99.90;;;;;;5023046;28;20116;-69
2022/09/08 13:58:16;;;;;;;;;;;23.10;99.90;;;;;;5022362;28;19921;-68
2022/09/08 14:00:57;;;;;;;;;;;22.70;99.90;;;;;;5009863;28;20167;-69
2022/09/08 14:03:24;;;;;;;;;;;22.80;99.90;;;;;;5021691;28;19921;-69
2022/09/08 14:05:52;;;;;;;;;;;23.00;99.90;;;;;;5022710;28;20239;-69
2022/09/08 14:08:23;;;;;;;;;;;23.20;99.90;;;;;;5022615;28;19922;-69
2022/09/08 14:10:55;;;;;;;;;;;23.40;99.90;;;;;;5023622;28;19968;-68
2022/09/08 14:13:27;;;;;;;;;;;23.70;99.90;;;;;;5024651;28;19922;-67
2022/09/08 14:15:56;;;;;;;;;;;23.80;99.90;;;;;;5027642;28;19929;-67
2022/09/08 14:18:31;;;;;;;;;;;23.80;99.90;;;;;;5007571;28;19922;-68
2022/09/08 14:21:00;;;;;;;;;;;23.90;99.90;;;;;;5007471;28;19928;-69
2022/09/08 14:23:34;;;;;;;;;;;24.10;99.90;;;;;;5007239;28;19928;-70
2022/09/08 14:26:16;;;;;;;;;;;24.40;99.90;;;;;;5007336;28;19922;-68
2022/09/08 14:28:45;;;;;;;;;;;24.40;99.90;;;;;;4965058;28;19981;-69
2022/09/08 14:31:16;;;;;;;;;;;24.10;99.90;;;;;;5007208;28;20231;-69
2022/09/08 14:33:45;;;;;;;;;;;24.10;99.90;;;;;;5007166;28;20228;-69
2022/09/08 14:36:17;;;;;;;;;;;24.20;99.90;;;;;;5007290;28;19964;-70
2022/09/08 14:38:59;;;;;;;;;;;24.30;99.90;;;;;;5007509;28;19921;-69
2022/09/08 14:41:36;;;;;;;;;;;24.50;99.90;;;;;;5007376;28;19985;-70
2022/09/08 14:44:17;;;;;;;;;;;24.60;99.90;;;;;;5007120;28;19992;-71
2022/09/08 14:46:50;;;;;;;;;;;24.50;99.90;;;;;;5007077;28;20142;-71
2022/09/08 14:49:30;;;;;;;;;;;24.60;99.90;;;;;;5007485;28;19960;-70
2022/09/08 14:52:01;;;;;;;;;;;24.70;99.90;;;;;;5005321;28;19964;-70
2022/09/08 14:54:35;;;;;;;;;;;24.50;99.90;;;;;;5006333;28;19953;-71
2022/09/08 14:57:14;;;;;;;;;;;24.40;99.90;;;;;;5014337;28;19922;-71
2022/09/08 15:00:00;;;;;;;;;;;24.20;99.90;;;;;;5025830;28;19928;-71
2022/09/08 15:02:28;;;;;;;;;;;24.00;99.90;;;;;;5028008;28;20156;-71
2022/09/08 15:05:06;;;;;;;;;;;23.80;99.90;;;;;;5022435;28;20204;-69
2022/09/08 15:07:35;;;;;;;;;;;23.60;99.90;;;;;;5014862;28;20517;-69
2022/09/08 15:10:06;;;;;;;;;;;23.40;99.90;;;;;;5025911;28;19925;-70